createdAt,value
2023-02-24T00:02:15.003Z,6.00
2023-02-24T00:04:44.081Z,6.00
2023-02-24T00:07:12.839Z,5.90
2023-02-24T00:09:40.282Z,5.90
2023-02-24T00:12:10.754Z,5.90
2023-02-24T00:14:40.479Z,5.90
2023-02-24T00:17:08.317Z,5.70
2023-02-24T00:19:36.761Z,5.80
2023-02-24T00:22:05.981Z,5.80
2023-02-24T00:24:33.888Z,5.80
2023-02-24T00:27:02.361Z,5.90
2023-02-24T00:29:30.095Z,5.80
2023-02-24T00:32:01.276Z,5.70
2023-02-24T00:34:31.172Z,5.70
2023-02-24T00:36:59.367Z,5.70
2023-02-24T00:39:30.765Z,5.70
2023-02-24T00:42:04.683Z,5.70
2023-02-24T00:44:39.470Z,5.60
2023-02-24T00:47:08.265Z,5.70
2023-02-24T00:49:36.395Z,5.70
2023-02-24T00:52:08.048Z,5.70
2023-02-24T00:54:38.373Z,5.70
2023-02-24T00:57:08.265Z,5.60
2023-02-24T00:59:36.568Z,5.70
2023-02-24T01:02:04.104Z,5.70
2023-02-24T01:04:32.150Z,5.70
2023-02-24T01:07:02.144Z,5.50
2023-02-24T01:09:31.686Z,5.60
2023-02-24T01:12:22.112Z,5.60
2023-02-24T01:14:52.139Z,5.60
2023-02-24T01:17:20.895Z,5.60
2023-02-24T01:19:49.917Z,5.60
2023-02-24T01:22:19.815Z,5.60
2023-02-24T01:24:48.468Z,5.60
2023-02-24T01:27:19.992Z,5.60
2023-02-24T01:29:48.377Z,5.60
2023-02-24T01:32:19.455Z,5.70
2023-02-24T01:34:51.037Z,5.70
2023-02-24T01:37:19.263Z,5.80
2023-02-24T01:39:47.780Z,5.80
2023-02-24T01:42:19.351Z,5.80
2023-02-24T01:44:46.841Z,5.80
2023-02-24T01:47:16.110Z,5.80
2023-02-24T01:49:49.559Z,5.90
2023-02-24T01:52:22.188Z,5.90
2023-02-24T01:54:58.048Z,5.90
2023-02-24T01:57:29.485Z,5.90
2023-02-24T02:00:09.533Z,5.80
2023-02-24T02:02:39.168Z,5.80
2023-02-24T02:05:09.709Z,5.80
2023-02-24T02:07:41.579Z,5.80
2023-02-24T02:10:09.705Z,5.80
2023-02-24T02:12:44.037Z,5.80
2023-02-24T02:15:15.265Z,5.80
2023-02-24T02:18:07.117Z,5.70
2023-02-24T02:20:56.636Z,5.80
2023-02-24T02:23:50.195Z,5.80
2023-02-24T02:26:30.080Z,5.80
2023-02-24T02:29:02.910Z,5.80
2023-02-24T02:31:55.327Z,5.80
2023-02-24T02:34:36.853Z,5.80
2023-02-24T02:37:47.480Z,5.90
2023-02-24T02:40:24.143Z,5.80
2023-02-24T02:43:14.150Z,5.70
2023-02-24T02:45:51.771Z,5.80
2023-02-24T02:48:31.049Z,5.80
2023-02-24T02:51:04.286Z,5.80
2023-02-24T02:53:54.610Z,5.80
2023-02-24T02:56:30.683Z,5.80
2023-02-24T02:59:00.741Z,5.80
2023-02-24T03:01:33.371Z,5.80
2023-02-24T03:04:06.104Z,5.80
2023-02-24T03:06:37.676Z,5.90
2023-02-24T03:09:16.017Z,6.00
2023-02-24T03:11:49.022Z,5.90
2023-02-24T03:14:20.240Z,5.90
2023-02-24T03:16:49.903Z,5.90
2023-02-24T03:19:20.985Z,5.90
2023-02-24T03:21:59.136Z,5.90
2023-02-24T03:24:27.968Z,5.80
2023-02-24T03:27:06.734Z,5.90
2023-02-24T03:29:50.408Z,5.90
2023-02-24T03:32:26.846Z,6.00
2023-02-24T03:35:18.059Z,6.00
2023-02-24T03:37:47.328Z,5.90
2023-02-24T03:40:15.747Z,6.00
2023-02-24T03:42:47.215Z,6.10
2023-02-24T03:45:16.303Z,6.10
2023-02-24T03:47:45.534Z,6.20
2023-02-24T03:50:15.312Z,6.10
2023-02-24T03:53:01.510Z,6.20
2023-02-24T03:55:34.719Z,6.20
2023-02-24T03:58:28.140Z,6.20
2023-02-24T04:01:05.669Z,6.20
2023-02-24T04:03:57.722Z,6.20
2023-02-24T04:06:33.828Z,6.20
2023-02-24T04:09:29.987Z,6.20
2023-02-24T04:12:13.865Z,6.30
2023-02-24T04:14:46.640Z,6.20
2023-02-24T04:17:25.043Z,6.20
2023-02-24T04:19:56.222Z,6.20
2023-02-24T04:22:26.621Z,6.20
2023-02-24T04:24:59.598Z,6.20
2023-02-24T04:27:28.657Z,6.20
2023-02-24T04:30:00.061Z,6.20
2023-02-24T04:32:30.164Z,6.30
2023-02-24T04:35:25.258Z,6.30
2023-02-24T04:37:52.721Z,6.40
2023-02-24T04:40:22.165Z,6.30
2023-02-24T04:42:51.893Z,6.40
2023-02-24T04:45:30.623Z,6.40
2023-02-24T04:48:02.084Z,6.30
2023-02-24T04:50:31.984Z,6.30
2023-02-24T04:53:01.735Z,6.30
2023-02-24T04:55:33.075Z,6.30
2023-02-24T04:58:01.844Z,6.30
2023-02-24T05:00:41.276Z,6.30
2023-02-24T05:03:11.475Z,6.30
2023-02-24T05:05:38.724Z,6.30
2023-02-24T05:08:08.676Z,6.30
2023-02-24T05:10:41.756Z,6.30
2023-02-24T05:13:09.378Z,6.30
2023-02-24T05:15:42.023Z,6.30
2023-02-24T05:18:14.090Z,6.30
2023-02-24T05:21:02.509Z,6.20
2023-02-24T05:23:35.796Z,6.20
2023-02-24T05:26:08.557Z,6.20
2023-02-24T05:28:38.246Z,6.20
2023-02-24T05:31:08.435Z,6.20
2023-02-24T05:33:42.539Z,6.20
2023-02-24T05:36:15.157Z,6.20
2023-02-24T05:38:44.020Z,6.20
2023-02-24T05:41:17.656Z,6.10
2023-02-24T05:43:53.540Z,6.10
2023-02-24T05:46:28.292Z,6.10
2023-02-24T05:48:57.546Z,6.10
2023-02-24T05:51:35.312Z,6.10
2023-02-24T05:54:04.783Z,6.00
2023-02-24T05:56:37.292Z,6.00
2023-02-24T05:59:08.996Z,5.90
2023-02-24T06:01:38.077Z,5.80
2023-02-24T06:04:07.475Z,5.80
2023-02-24T06:06:38.792Z,5.70
2023-02-24T06:09:13.132Z,5.70
2023-02-24T06:11:42.184Z,5.60
2023-02-24T06:14:11.329Z,5.60
2023-02-24T06:16:40.151Z,5.50
2023-02-24T06:19:10.382Z,5.50
2023-02-24T06:21:41.283Z,5.50
2023-02-24T06:24:14.551Z,5.40
2023-02-24T06:26:45.432Z,5.40
2023-02-24T06:29:14.869Z,5.50
2023-02-24T06:31:43.103Z,5.50
2023-02-24T06:34:11.636Z,5.50
2023-02-24T06:36:38.739Z,5.50
2023-02-24T06:39:09.476Z,5.60
2023-02-24T06:41:37.864Z,5.70
2023-02-24T06:44:05.388Z,5.70
2023-02-24T06:46:32.337Z,5.70
2023-02-24T06:48:59.659Z,5.70
2023-02-24T06:51:30.111Z,5.80
2023-02-24T06:53:59.614Z,5.90
2023-02-24T06:56:27.756Z,5.80
2023-02-24T06:58:57.397Z,5.80
2023-02-24T07:01:27.918Z,5.70
2023-02-24T07:04:12.977Z,5.80
2023-02-24T07:06:42.172Z,5.80
2023-02-24T07:09:13.136Z,5.80
2023-02-24T07:11:46.665Z,5.80
2023-02-24T07:14:15.667Z,5.80
2023-02-24T07:16:45.500Z,5.80
2023-02-24T07:19:15.743Z,5.60
2023-02-24T07:21:49.754Z,5.40
2023-02-24T07:24:25.346Z,5.40
2023-02-24T07:26:57.475Z,5.30
2023-02-24T07:29:25.957Z,5.30
2023-02-24T07:31:54.974Z,5.20
2023-02-24T07:34:25.180Z,5.20
2023-02-24T07:36:54.525Z,5.10
2023-02-24T07:39:23.201Z,5.10
2023-02-24T07:41:51.852Z,5.00
2023-02-24T07:44:21.072Z,5.00
2023-02-24T07:46:49.266Z,4.90
2023-02-24T07:49:20.287Z,4.80
2023-02-24T07:51:52.701Z,4.80
2023-02-24T07:54:25.232Z,4.80
2023-02-24T07:56:59.047Z,4.60
2023-02-24T07:59:29.332Z,4.60
2023-02-24T08:01:56.858Z,4.70
2023-02-24T08:04:30.257Z,4.70
2023-02-24T08:07:02.382Z,4.80
2023-02-24T08:09:46.163Z,4.80
2023-02-24T08:12:17.836Z,4.80
2023-02-24T08:14:50.721Z,4.70
2023-02-24T08:17:20.130Z,4.60
2023-02-24T08:19:49.744Z,4.60
2023-02-24T08:22:20.907Z,4.70
2023-02-24T08:24:56.145Z,4.60
2023-02-24T08:27:25.229Z,4.50
2023-02-24T08:30:01.349Z,4.50
2023-02-24T08:32:37.144Z,4.40
2023-02-24T08:35:15.279Z,4.30
2023-02-24T08:37:47.669Z,4.30
2023-02-24T08:40:47.490Z,4.20
2023-02-24T08:43:16.321Z,4.10
2023-02-24T08:45:50.877Z,4.10
2023-02-24T08:48:26.146Z,4.10
2023-02-24T08:50:56.213Z,4.10
2023-02-24T08:53:29.638Z,4.20
2023-02-24T08:55:59.772Z,4.00
2023-02-24T08:58:27.284Z,4.00
2023-02-24T09:00:57.093Z,4.00
2023-02-24T09:03:29.229Z,4.10
2023-02-24T09:06:04.703Z,4.20
2023-02-24T09:08:33.983Z,4.10
2023-02-24T09:11:08.030Z,3.90
2023-02-24T09:13:37.196Z,3.90
2023-02-24T09:16:05.349Z,3.90
2023-02-24T09:18:38.357Z,3.80
2023-02-24T09:21:31.312Z,3.70
2023-02-24T09:24:00.387Z,3.70
2023-02-24T09:26:32.613Z,3.50
2023-02-24T09:28:59.841Z,3.40
2023-02-24T09:31:40.673Z,3.40
2023-02-24T09:34:18.393Z,3.50
2023-02-24T09:37:01.366Z,3.50
2023-02-24T09:39:54.640Z,3.60
2023-02-24T09:42:29.299Z,3.70
2023-02-24T09:45:02.215Z,3.50
2023-02-24T09:47:40.235Z,3.40
2023-02-24T09:50:38.293Z,3.50
2023-02-24T09:53:17.191Z,3.50
2023-02-24T09:56:05.513Z,3.40
2023-02-24T09:58:53.094Z,3.40
2023-02-24T10:01:23.564Z,3.50
2023-02-24T10:04:18.662Z,3.60
2023-02-24T10:07:12.888Z,3.70
2023-02-24T10:10:11.131Z,4.00
2023-02-24T10:12:40.299Z,4.10
2023-02-24T10:15:32.234Z,4.10
2023-02-24T10:18:16.377Z,4.10
2023-02-24T10:20:45.794Z,4.10
2023-02-24T10:23:16.035Z,4.40
2023-02-24T10:25:54.467Z,4.50
2023-02-24T10:28:51.812Z,4.60
2023-02-24T10:31:35.803Z,4.60
2023-02-24T10:34:08.755Z,4.40
2023-02-24T10:36:36.801Z,4.40
2023-02-24T10:39:15.525Z,4.50
2023-02-24T10:41:46.064Z,4.60
2023-02-24T10:44:21.107Z,4.70
2023-02-24T10:46:59.042Z,4.80
2023-02-24T10:49:26.779Z,4.80
2023-02-24T10:51:54.410Z,4.90
2023-02-24T10:54:45.043Z,4.90
2023-02-24T10:57:38.288Z,5.00
2023-02-24T11:00:17.784Z,5.10
2023-02-24T11:03:14.075Z,5.30
2023-02-24T11:06:04.512Z,5.50
2023-02-24T11:08:44.298Z,5.30
2023-02-24T11:11:29.835Z,5.30
2023-02-24T11:14:19.454Z,5.40
2023-02-24T11:17:11.387Z,5.40
2023-02-24T11:20:00.898Z,5.40
2023-02-24T11:22:33.961Z,5.30
2023-02-24T11:25:05.548Z,5.40
2023-02-24T11:27:32.941Z,5.30
2023-02-24T11:30:09.120Z,5.10
2023-02-24T11:33:00.823Z,5.10
2023-02-24T11:35:41.801Z,5.10
2023-02-24T11:38:19.302Z,5.20
2023-02-24T11:40:51.718Z,5.30
2023-02-24T11:43:25.701Z,5.40
2023-02-24T11:46:07.280Z,5.50
2023-02-24T11:48:42.573Z,5.50
2023-02-24T11:51:30.219Z,5.50
2023-02-24T11:54:02.739Z,5.50
2023-02-24T11:56:38.871Z,5.50
2023-02-24T11:59:19.639Z,5.60
2023-02-24T12:02:08.830Z,5.60
2023-02-24T12:04:41.202Z,5.70
2023-02-24T12:07:34.843Z,5.60
2023-02-24T12:10:16.780Z,5.60
2023-02-24T12:13:10.995Z,5.50
2023-02-24T12:16:00.506Z,5.40
2023-02-24T12:18:34.562Z,5.30
2023-02-24T12:21:14.902Z,5.30
2023-02-24T12:23:45.657Z,5.30
2023-02-24T12:26:32.332Z,5.10
2023-02-24T12:29:20.559Z,5.10
2023-02-24T12:32:22.388Z,5.20
2023-02-24T12:35:21.645Z,5.20
2023-02-24T12:38:35.912Z,5.20
2023-02-24T12:41:24.033Z,5.30
2023-02-24T12:44:02.442Z,5.20
2023-02-24T12:46:40.073Z,5.10
2023-02-24T12:49:29.193Z,5.20
2023-02-24T12:52:09.472Z,5.30
2023-02-24T12:55:06.219Z,5.20
2023-02-24T12:57:48.290Z,5.20
2023-02-24T13:00:29.693Z,5.20
2023-02-24T13:03:15.739Z,5.10
2023-02-24T13:06:05.334Z,5.00
2023-02-24T13:09:05.928Z,4.90
2023-02-24T13:11:42.193Z,4.90
2023-02-24T13:14:12.141Z,4.90
2023-02-24T13:16:39.223Z,5.00
2023-02-24T13:19:27.641Z,5.00
2023-02-24T13:22:22.123Z,5.20
2023-02-24T13:25:17.498Z,5.20
2023-02-24T13:27:54.136Z,5.30
2023-02-24T13:30:26.764Z,5.30
2023-02-24T13:33:06.098Z,5.40
2023-02-24T13:35:36.630Z,5.40
2023-02-24T13:38:31.048Z,5.50
2023-02-24T13:41:21.176Z,5.40
2023-02-24T13:43:59.978Z,5.40
2023-02-24T13:46:33.745Z,5.30
2023-02-24T13:49:19.072Z,5.30
2023-02-24T13:51:52.971Z,5.20
2023-02-24T13:54:46.710Z,5.20
2023-02-24T13:57:31.982Z,5.20
2023-02-24T14:00:36.375Z,5.20
2023-02-24T14:03:11.030Z,5.40
2023-02-24T14:05:41.906Z,5.50
2023-02-24T14:08:37.017Z,5.50
2023-02-24T14:11:04.229Z,5.40
2023-02-24T14:13:34.280Z,5.30
2023-02-24T14:16:10.851Z,5.30
2023-02-24T14:18:39.093Z,5.30
2023-02-24T14:21:06.199Z,5.20
2023-02-24T14:23:34.831Z,5.10
2023-02-24T14:26:08.088Z,5.20
2023-02-24T14:28:37.677Z,5.10
2023-02-24T14:31:16.509Z,5.00
2023-02-24T14:33:45.347Z,5.10
2023-02-24T14:36:22.790Z,5.20
2023-02-24T14:39:15.458Z,5.20
2023-02-24T14:41:43.073Z,5.20
2023-02-24T14:44:27.732Z,5.30
2023-02-24T14:46:57.838Z,5.30
2023-02-24T14:49:32.731Z,5.30
2023-02-24T14:52:19.120Z,5.30
2023-02-24T14:54:53.084Z,5.20
2023-02-24T14:57:34.664Z,5.00
2023-02-24T15:00:10.899Z,5.00
2023-02-24T15:02:43.778Z,5.10
2023-02-24T15:05:11.963Z,5.10
2023-02-24T15:07:39.901Z,5.00
2023-02-24T15:10:17.342Z,5.00
2023-02-24T15:12:48.679Z,4.90
2023-02-24T15:15:27.072Z,4.70
2023-02-24T15:17:57.892Z,4.80
2023-02-24T15:20:26.595Z,4.60
2023-02-24T15:22:53.787Z,4.60
2023-02-24T15:25:37.229Z,4.60
2023-02-24T15:28:26.870Z,4.70
2023-02-24T15:31:30.174Z,4.80
2023-02-24T15:34:00.307Z,4.80
2023-02-24T15:36:36.118Z,4.60
2023-02-24T15:39:07.432Z,4.60
2023-02-24T15:42:05.436Z,4.40
2023-02-24T15:44:34.443Z,4.30
2023-02-24T15:47:20.398Z,4.20
2023-02-24T15:49:47.478Z,4.10
2023-02-24T15:52:17.381Z,4.10
2023-02-24T15:54:44.417Z,4.20
2023-02-24T15:57:16.529Z,4.10
2023-02-24T15:59:44.607Z,4.10
2023-02-24T16:02:15.832Z,4.20
2023-02-24T16:04:43.068Z,4.10
2023-02-24T16:07:17.271Z,4.20
2023-02-24T16:09:45.852Z,4.10
2023-02-24T16:12:21.733Z,4.10
2023-02-24T16:14:55.937Z,4.10
2023-02-24T16:17:39.946Z,4.10
2023-02-24T16:20:12.545Z,4.10
2023-02-24T16:22:39.850Z,4.10
2023-02-24T16:25:07.400Z,4.10
2023-02-24T16:27:35.932Z,4.00
2023-02-24T16:30:03.889Z,4.00
2023-02-24T16:32:31.328Z,4.10
2023-02-24T16:34:58.444Z,4.10
2023-02-24T16:37:29.901Z,4.00
2023-02-24T16:39:59.462Z,4.10
2023-02-24T16:42:27.225Z,4.10
2023-02-24T16:44:54.172Z,3.90
2023-02-24T16:47:24.263Z,3.90
2023-02-24T16:49:55.270Z,3.90
2023-02-24T16:52:24.745Z,4.00
2023-02-24T16:54:51.842Z,4.00
2023-02-24T16:57:19.137Z,4.10
2023-02-24T16:59:46.408Z,4.00
2023-02-24T17:02:20.003Z,4.00
2023-02-24T17:04:46.969Z,4.00
2023-02-24T17:07:19.129Z,4.00
2023-02-24T17:09:46.067Z,4.00
2023-02-24T17:12:15.323Z,4.00
2023-02-24T17:14:42.434Z,3.90
2023-02-24T17:17:11.644Z,3.90
2023-02-24T17:19:39.382Z,3.80
2023-02-24T17:22:06.645Z,3.90
2023-02-24T17:24:33.821Z,3.80
2023-02-24T17:27:01.292Z,3.90
2023-02-24T17:29:28.261Z,3.80
2023-02-24T17:31:57.304Z,3.70
2023-02-24T17:34:24.497Z,3.80
2023-02-24T17:36:51.787Z,3.70
2023-02-24T17:39:18.773Z,3.70
2023-02-24T17:41:46.046Z,3.50
2023-02-24T17:44:13.153Z,3.50
2023-02-24T17:46:40.486Z,3.50
2023-02-24T17:49:07.611Z,3.50
2023-02-24T17:51:34.987Z,3.50
2023-02-24T17:54:02.025Z,3.50
2023-02-24T17:56:29.700Z,3.60
2023-02-24T17:58:58.890Z,3.60
2023-02-24T18:01:27.068Z,3.60
2023-02-24T18:03:57.986Z,3.60
2023-02-24T18:06:25.459Z,3.60
2023-02-24T18:08:52.426Z,3.60
2023-02-24T18:11:20.077Z,3.60
2023-02-24T18:13:50.779Z,3.70
2023-02-24T18:16:18.121Z,3.60
2023-02-24T18:18:45.228Z,3.70
2023-02-24T18:21:12.531Z,3.70
2023-02-24T18:23:40.206Z,3.70
2023-02-24T18:26:09.521Z,3.60
2023-02-24T18:28:36.937Z,3.60
2023-02-24T18:31:25.670Z,3.60
2023-02-24T18:33:53.576Z,3.60
2023-02-24T18:36:21.441Z,3.50
2023-02-24T18:38:48.571Z,3.40
2023-02-24T18:41:21.613Z,3.40
2023-02-24T18:43:50.314Z,3.50
2023-02-24T18:46:18.632Z,3.40
2023-02-24T18:48:46.877Z,3.30
2023-02-24T18:51:17.172Z,3.30
2023-02-24T18:53:44.909Z,3.30
2023-02-24T18:56:23.788Z,3.30
2023-02-24T18:58:52.625Z,3.30
2023-02-24T19:01:24.468Z,3.20
2023-02-24T19:03:52.631Z,3.30
2023-02-24T19:06:21.546Z,3.20
2023-02-24T19:08:50.779Z,3.20
2023-02-24T19:11:19.889Z,3.30
2023-02-24T19:13:47.797Z,3.30
2023-02-24T19:16:16.169Z,3.20
2023-02-24T19:18:43.878Z,3.20
2023-02-24T19:21:11.610Z,3.20
2023-02-24T19:23:38.823Z,3.20
2023-02-24T19:26:07.564Z,3.20
2023-02-24T19:28:34.526Z,3.20
2023-02-24T19:31:01.837Z,3.20
2023-02-24T19:33:28.786Z,3.20
2023-02-24T19:35:59.557Z,3.20
2023-02-24T19:38:26.600Z,3.20
2023-02-24T19:40:58.437Z,3.30
2023-02-24T19:43:25.477Z,3.30
2023-02-24T19:45:53.200Z,3.20
2023-02-24T19:48:20.251Z,3.10
2023-02-24T19:50:47.652Z,3.30
2023-02-24T19:53:14.605Z,3.20
2023-02-24T19:55:48.426Z,3.30
2023-02-24T19:58:15.503Z,3.40
2023-02-24T20:00:42.843Z,3.50
2023-02-24T20:03:09.849Z,3.50
2023-02-24T20:05:37.591Z,3.60
2023-02-24T20:08:04.594Z,3.60
2023-02-24T20:10:32.167Z,3.50
2023-02-24T20:12:59.157Z,3.50
2023-02-24T20:15:26.500Z,3.40
2023-02-24T20:17:53.515Z,3.30
2023-02-24T20:20:21.038Z,3.20
2023-02-24T20:22:48.024Z,3.20
2023-02-24T20:25:15.819Z,3.30
2023-02-24T20:27:42.861Z,3.20
2023-02-24T20:30:10.821Z,3.20
2023-02-24T20:32:38.278Z,3.30
2023-02-24T20:35:06.085Z,3.30
2023-02-24T20:37:33.062Z,3.30
2023-02-24T20:40:00.296Z,3.40
2023-02-24T20:42:27.331Z,3.40
2023-02-24T20:44:54.782Z,3.50
2023-02-24T20:47:21.742Z,3.50
2023-02-24T20:49:49.114Z,3.50
2023-02-24T20:52:16.121Z,3.50
2023-02-24T20:54:45.569Z,3.50
2023-02-24T20:57:12.523Z,3.50
2023-02-24T20:59:49.306Z,3.50
2023-02-24T21:02:21.684Z,3.50
2023-02-24T21:04:49.009Z,3.60
2023-02-24T21:07:15.988Z,3.60
2023-02-24T21:09:43.379Z,3.60
2023-02-24T21:12:10.445Z,3.60
2023-02-24T21:14:37.695Z,3.50
2023-02-24T21:17:05.014Z,3.50
2023-02-24T21:19:32.216Z,3.30
2023-02-24T21:21:59.301Z,3.50
2023-02-24T21:24:26.812Z,3.50
2023-02-24T21:26:53.773Z,3.60
2023-02-24T21:29:21.116Z,3.60
2023-02-24T21:31:49.763Z,3.60
2023-02-24T21:34:17.153Z,3.60
2023-02-24T21:36:44.184Z,3.60
2023-02-24T21:39:15.185Z,3.60
2023-02-24T21:41:42.455Z,3.70
2023-02-24T21:44:14.233Z,3.70
2023-02-24T21:46:42.428Z,3.80
2023-02-24T21:49:14.381Z,3.70
2023-02-24T21:51:41.986Z,3.80
2023-02-24T21:54:12.442Z,3.90
2023-02-24T21:56:39.572Z,3.80
2023-02-24T21:59:09.194Z,3.80
2023-02-24T22:01:39.238Z,3.70
2023-02-24T22:04:10.324Z,3.80
2023-02-24T22:06:39.572Z,3.70
2023-02-24T22:09:08.655Z,3.80
2023-02-24T22:11:38.728Z,3.80
2023-02-24T22:14:11.488Z,3.80
2023-02-24T22:16:39.671Z,3.80
2023-02-24T22:19:07.390Z,3.80
2023-02-24T22:21:34.689Z,3.80
2023-02-24T22:24:03.809Z,3.60
2023-02-24T22:26:32.076Z,3.60
2023-02-24T22:29:00.807Z,3.70
2023-02-24T22:31:30.923Z,3.60
2023-02-24T22:33:58.787Z,3.70
2023-02-24T22:36:28.624Z,3.70
2023-02-24T22:38:57.447Z,3.70
2023-02-24T22:41:27.582Z,3.70
2023-02-24T22:43:54.906Z,3.60
2023-02-24T22:46:25.341Z,3.60
2023-02-24T22:48:53.122Z,3.60
2023-02-24T22:51:20.383Z,3.60
2023-02-24T22:53:49.654Z,3.60
2023-02-24T22:56:20.707Z,3.60
2023-02-24T22:58:48.945Z,3.60
2023-02-24T23:01:24.812Z,3.60
2023-02-24T23:03:52.631Z,3.60
2023-02-24T23:06:22.899Z,3.60
2023-02-24T23:08:51.451Z,3.60
2023-02-24T23:11:30.581Z,3.60
2023-02-24T23:14:01.257Z,3.60
2023-02-24T23:16:31.751Z,3.60
2023-02-24T23:19:05.154Z,3.70
2023-02-24T23:21:37.828Z,3.70
2023-02-24T23:24:06.153Z,3.70
2023-02-24T23:26:36.996Z,3.70
2023-02-24T23:29:06.075Z,3.70
2023-02-24T23:31:33.430Z,3.70
2023-02-24T23:34:02.998Z,3.70
2023-02-24T23:36:30.781Z,3.70
2023-02-24T23:38:58.017Z,3.60
2023-02-24T23:41:24.958Z,3.70
2023-02-24T23:43:52.185Z,3.80
2023-02-24T23:46:19.208Z,3.70
2023-02-24T23:48:46.524Z,3.70
2023-02-24T23:51:14.241Z,3.70
2023-02-24T23:53:43.552Z,3.70
2023-02-24T23:56:17.742Z,3.70
2023-02-24T23:58:49.011Z,3.70
